Terminal Aerodrome Forecast
Issued by NWS Caribou, ME

Home | Current Version | Previous Version | Text Only | Print | Product List | Glossary On
Versions: 1 2 3 4 5 6 7 8 9 10 11 12 13 14 15 16
000
FTUS41 KCAR 181901 AAB
TAFBGR
TAF AMD
KBGR 181901Z 1819/1918 VRB02KT 2SM -SN OVC015
      TEMPO 1819/1823 1SM -SN OVC010
     FM190300 00000KT 2SM -SN OVC010
     FM190700 00000KT 3SM -FZDZ BKN007 OVC015
     FM191600 00000KT P6SM OVC015=

USA.gov is the U.S. government's official web portal to all federal, state and local government web resources and services.